createdAt,value
2022-07-29T00:00:25.681Z,0.00
2022-07-29T00:01:25.552Z,0.00
2022-07-29T00:02:25.625Z,0.00
2022-07-29T00:03:25.651Z,0.00
2022-07-29T00:04:25.578Z,0.00
2022-07-29T00:05:25.511Z,0.00
2022-07-29T00:06:25.506Z,0.00
2022-07-29T00:07:25.473Z,0.00
2022-07-29T00:08:25.480Z,0.00
2022-07-29T00:09:25.459Z,0.00
2022-07-29T00:10:25.434Z,0.00
2022-07-29T00:11:25.425Z,0.00
2022-07-29T00:12:26.702Z,0.00
2022-07-29T00:13:32.338Z,0.00
2022-07-29T00:14:26.379Z,0.00
2022-07-29T00:15:25.375Z,0.00
2022-07-29T00:16:25.406Z,0.00
2022-07-29T00:17:25.357Z,0.00
2022-07-29T00:18:25.358Z,0.00
2022-07-29T00:19:25.319Z,0.00
2022-07-29T00:20:25.327Z,0.00
2022-07-29T00:21:25.288Z,0.00
2022-07-29T00:22:25.281Z,0.00
2022-07-29T00:23:25.258Z,0.00
2022-07-29T00:24:25.368Z,0.00
2022-07-29T00:25:25.234Z,0.00
2022-07-29T00:26:25.222Z,0.00
2022-07-29T00:27:25.213Z,0.00
2022-07-29T00:28:25.194Z,0.00
2022-07-29T00:29:33.940Z,0.00
2022-07-29T00:30:26.219Z,0.00
2022-07-29T00:31:25.204Z,0.00
2022-07-29T00:32:25.163Z,0.00
2022-07-29T00:33:25.131Z,0.00
2022-07-29T00:34:25.126Z,0.00
2022-07-29T00:35:25.104Z,0.00
2022-07-29T00:36:25.113Z,0.00
2022-07-29T00:37:25.077Z,0.00
2022-07-29T00:38:25.074Z,0.00
2022-07-29T00:39:25.066Z,0.00
2022-07-29T00:40:25.045Z,0.00
2022-07-29T00:41:25.026Z,0.00
2022-07-29T00:42:25.046Z,0.00
2022-07-29T00:43:24.995Z,0.00
2022-07-29T00:44:24.986Z,0.00
2022-07-29T00:45:24.976Z,0.00
2022-07-29T00:46:25.007Z,0.00
2022-07-29T00:47:24.949Z,0.00
2022-07-29T00:48:24.970Z,0.00
2022-07-29T00:49:24.953Z,0.00
2022-07-29T00:50:24.910Z,0.00
2022-07-29T00:51:24.899Z,0.00
2022-07-29T00:52:24.880Z,0.00
2022-07-29T00:53:24.871Z,0.00
2022-07-29T00:54:24.892Z,0.00
2022-07-29T00:55:24.841Z,0.00
2022-07-29T00:56:24.831Z,0.00
2022-07-29T00:57:24.822Z,0.00
2022-07-29T00:58:24.805Z,0.00
2022-07-29T00:59:24.790Z,0.00
2022-07-29T01:00:25.854Z,0.00
2022-07-29T01:01:24.820Z,0.00
2022-07-29T01:02:24.833Z,0.00
2022-07-29T01:03:24.744Z,0.00
2022-07-29T01:04:24.723Z,0.00
2022-07-29T01:05:24.724Z,0.00
2022-07-29T01:06:24.814Z,0.00
2022-07-29T01:07:24.684Z,0.00
2022-07-29T01:08:24.677Z,0.00
2022-07-29T01:09:45.269Z,0.00
2022-07-29T01:10:25.645Z,0.00
2022-07-29T01:11:24.646Z,0.00
2022-07-29T01:12:24.656Z,0.00
2022-07-29T01:13:24.607Z,0.00
2022-07-29T01:14:24.597Z,0.00
2022-07-29T01:15:24.579Z,0.00
2022-07-29T01:16:24.602Z,0.00
2022-07-29T01:17:24.557Z,0.00
2022-07-29T01:18:24.658Z,0.00
2022-07-29T01:19:24.530Z,0.00
2022-07-29T01:20:24.520Z,0.00
2022-07-29T01:21:25.513Z,0.00
2022-07-29T01:22:24.499Z,0.00
2022-07-29T01:23:24.491Z,0.00
2022-07-29T01:24:24.491Z,0.00
2022-07-29T01:25:24.452Z,0.00
2022-07-29T01:26:24.440Z,0.00
2022-07-29T01:27:24.424Z,0.00
2022-07-29T01:28:24.415Z,0.00
2022-07-29T01:29:24.404Z,0.00
2022-07-29T01:30:24.413Z,0.00
2022-07-29T01:31:25.344Z,0.00
2022-07-29T01:32:28.916Z,0.00
2022-07-29T01:33:25.345Z,0.00
2022-07-29T01:34:24.342Z,0.00
2022-07-29T01:35:24.317Z,0.00
2022-07-29T01:36:24.335Z,0.00
2022-07-29T01:37:24.294Z,0.00
2022-07-29T01:38:24.287Z,0.00
2022-07-29T01:39:24.266Z,0.00
2022-07-29T01:40:24.257Z,0.00
2022-07-29T01:41:24.246Z,0.00
2022-07-29T01:42:24.340Z,0.00
2022-07-29T01:43:24.217Z,0.00
2022-07-29T01:44:24.207Z,0.00
2022-07-29T01:45:24.191Z,0.00
2022-07-29T01:46:24.184Z,0.00
2022-07-29T01:47:24.170Z,0.00
2022-07-29T01:48:24.188Z,0.00
2022-07-29T01:49:24.176Z,0.00
2022-07-29T01:50:24.129Z,0.00
2022-07-29T01:51:24.109Z,0.00
2022-07-29T01:52:24.113Z,0.00
2022-07-29T01:53:24.101Z,0.00
2022-07-29T01:54:24.101Z,0.00
2022-07-29T01:55:24.072Z,0.00
2022-07-29T01:56:24.052Z,0.00
2022-07-29T01:57:24.035Z,0.00
2022-07-29T01:58:24.024Z,0.00
2022-07-29T01:59:24.013Z,0.00
2022-07-29T02:00:24.031Z,0.00
2022-07-29T02:01:24.007Z,0.00
2022-07-29T02:02:23.974Z,0.00
2022-07-29T02:03:23.956Z,0.00
2022-07-29T02:04:29.945Z,0.00
2022-07-29T02:05:24.988Z,0.00
2022-07-29T02:06:23.926Z,0.00
2022-07-29T02:07:23.906Z,0.00
2022-07-29T02:08:23.899Z,0.00
2022-07-29T02:09:23.877Z,0.00
2022-07-29T02:10:25.991Z,0.00
2022-07-29T02:11:23.898Z,0.00
2022-07-29T02:12:23.847Z,0.00
2022-07-29T02:13:23.827Z,0.00
2022-07-29T02:14:23.818Z,0.00
2022-07-29T02:15:23.808Z,0.00
2022-07-29T02:16:23.860Z,0.00
2022-07-29T02:17:23.915Z,0.00
2022-07-29T02:18:23.759Z,0.00
2022-07-29T02:19:23.749Z,0.00
2022-07-29T02:20:23.740Z,0.00
2022-07-29T02:21:23.729Z,0.00
2022-07-29T02:22:23.718Z,0.00
2022-07-29T02:23:23.721Z,0.00
2022-07-29T02:24:23.689Z,0.00
2022-07-29T02:25:23.672Z,0.00
2022-07-29T02:26:23.662Z,0.00
2022-07-29T02:27:23.641Z,0.00
2022-07-29T02:28:23.643Z,0.00
2022-07-29T02:29:23.653Z,0.00
2022-07-29T02:30:23.612Z,0.00
2022-07-29T02:31:23.639Z,0.00
2022-07-29T02:32:23.583Z,0.00
2022-07-29T02:33:23.574Z,0.00
2022-07-29T02:34:23.554Z,0.00
2022-07-29T02:35:23.578Z,0.00
2022-07-29T02:36:23.535Z,0.00
2022-07-29T02:37:23.515Z,0.00
2022-07-29T02:38:23.506Z,0.00
2022-07-29T02:39:23.494Z,0.00
2022-07-29T02:40:23.476Z,0.00
2022-07-29T02:41:23.497Z,0.00
2022-07-29T02:42:23.462Z,0.00
2022-07-29T02:43:23.447Z,0.00
2022-07-29T02:44:23.429Z,0.00
2022-07-29T02:45:23.408Z,0.00
2022-07-29T02:46:29.197Z,0.00
2022-07-29T02:47:24.401Z,0.00
2022-07-29T02:48:23.379Z,0.00
2022-07-29T02:49:23.436Z,0.00
2022-07-29T02:50:23.361Z,0.00
2022-07-29T02:51:43.672Z,0.00
2022-07-29T02:52:24.337Z,0.00
2022-07-29T02:53:23.311Z,0.00
2022-07-29T02:54:23.321Z,0.00
2022-07-29T02:55:23.290Z,0.00
2022-07-29T02:56:23.282Z,0.00
2022-07-29T02:57:23.292Z,0.00
2022-07-29T02:58:23.256Z,0.00
2022-07-29T02:59:23.232Z,1.00
2022-07-29T03:00:23.233Z,1.00
2022-07-29T03:01:23.247Z,1.00
2022-07-29T03:02:23.204Z,1.00
2022-07-29T03:03:23.194Z,1.00
2022-07-29T03:04:23.219Z,0.00
2022-07-29T03:05:23.194Z,0.00
2022-07-29T03:06:28.026Z,0.00
2022-07-29T03:07:24.137Z,2.00
2022-07-29T03:08:23.164Z,2.00
2022-07-29T03:09:23.105Z,2.00
2022-07-29T03:10:23.098Z,2.00
2022-07-29T03:11:23.086Z,4.00
2022-07-29T03:12:24.069Z,0.00
2022-07-29T03:13:23.056Z,0.00
2022-07-29T03:14:23.164Z,4.00
2022-07-29T03:15:23.033Z,4.00
2022-07-29T03:16:23.035Z,2.00
2022-07-29T03:17:23.012Z,6.00
2022-07-29T03:18:23.020Z,6.00
2022-07-29T03:19:22.979Z,5.00
2022-07-29T03:20:23.000Z,9.00
2022-07-29T03:21:22.958Z,15.00
2022-07-29T03:22:22.943Z,15.00
2022-07-29T03:23:22.930Z,13.00
2022-07-29T03:24:22.912Z,20.00
2022-07-29T03:25:22.904Z,23.00
2022-07-29T03:26:22.923Z,14.00
2022-07-29T03:27:22.873Z,31.00
2022-07-29T03:28:22.873Z,29.00
2022-07-29T03:29:22.854Z,36.00
2022-07-29T03:30:22.842Z,36.00
2022-07-29T03:31:22.875Z,43.00
2022-07-29T03:32:25.161Z,43.00
2022-07-29T03:33:22.814Z,46.00
2022-07-29T03:34:23.504Z,51.00
2022-07-29T03:35:22.774Z,64.00
2022-07-29T03:36:22.769Z,71.00
2022-07-29T03:37:22.754Z,80.00
2022-07-29T03:38:22.848Z,85.00
2022-07-29T03:39:22.727Z,102.00
2022-07-29T03:40:22.725Z,103.00
2022-07-29T03:41:22.787Z,116.00
2022-07-29T03:42:22.696Z,129.00
2022-07-29T03:43:22.677Z,138.00
2022-07-29T03:44:22.779Z,154.00
2022-07-29T03:45:22.651Z,165.00
2022-07-29T03:46:22.664Z,175.00
2022-07-29T03:47:22.629Z,192.00
2022-07-29T03:48:22.609Z,201.00
2022-07-29T03:49:22.714Z,218.00
2022-07-29T03:50:22.630Z,235.00
2022-07-29T03:51:33.315Z,255.00
2022-07-29T03:52:23.560Z,282.00
2022-07-29T03:53:22.542Z,307.00
2022-07-29T03:54:22.532Z,329.00
2022-07-29T03:55:22.521Z,351.00
2022-07-29T03:56:22.532Z,383.00
2022-07-29T03:57:22.504Z,404.00
2022-07-29T03:58:22.482Z,425.00
2022-07-29T03:59:22.472Z,452.00
2022-07-29T04:00:22.454Z,479.00
2022-07-29T04:01:22.491Z,502.00
2022-07-29T04:02:26.193Z,537.00
2022-07-29T04:03:23.460Z,558.00
2022-07-29T04:04:22.404Z,593.00
2022-07-29T04:05:22.394Z,612.00
2022-07-29T04:06:22.375Z,643.00
2022-07-29T04:07:22.366Z,670.00
2022-07-29T04:08:22.373Z,711.00
2022-07-29T04:09:22.347Z,736.00
2022-07-29T04:10:30.143Z,771.00
2022-07-29T04:11:23.324Z,820.00
2022-07-29T04:12:22.297Z,844.00
2022-07-29T04:13:22.300Z,883.00
2022-07-29T04:14:22.389Z,926.00
2022-07-29T04:15:22.279Z,976.00
2022-07-29T04:16:22.345Z,1003.00
2022-07-29T04:17:22.239Z,1057.00
2022-07-29T04:18:22.221Z,1097.00
2022-07-29T04:19:22.219Z,1146.00
2022-07-29T04:20:22.230Z,1195.00
2022-07-29T04:21:22.190Z,1242.00
2022-07-29T04:22:22.182Z,1298.00
2022-07-29T04:23:22.167Z,1350.00
2022-07-29T04:24:22.152Z,1400.00
2022-07-29T04:25:22.144Z,1456.00
2022-07-29T04:26:22.152Z,1516.00
2022-07-29T04:27:22.122Z,1593.00
2022-07-29T04:28:22.104Z,1650.00
2022-07-29T04:29:22.102Z,1722.00
2022-07-29T04:30:22.080Z,1795.00
2022-07-29T04:31:25.659Z,1883.00
2022-07-29T04:32:22.082Z,1954.00
2022-07-29T04:33:22.037Z,2030.00
2022-07-29T04:34:22.039Z,2121.00
2022-07-29T04:35:22.021Z,2208.00
2022-07-29T04:36:28.609Z,2298.00
2022-07-29T04:37:23.096Z,2378.00
2022-07-29T04:38:21.967Z,2455.00
2022-07-29T04:39:23.232Z,2547.00
2022-07-29T04:40:21.948Z,2624.00
2022-07-29T04:41:21.935Z,2715.00
2022-07-29T04:42:27.670Z,2815.00
2022-07-29T04:43:23.302Z,2908.00
2022-07-29T04:44:21.889Z,3002.00
2022-07-29T04:45:22.948Z,3102.00
2022-07-29T04:46:21.913Z,3206.00
2022-07-29T04:47:21.858Z,3294.00
2022-07-29T04:48:26.722Z,3388.00
2022-07-29T04:49:22.992Z,3474.00
2022-07-29T04:50:21.821Z,3552.00
2022-07-29T04:51:21.810Z,3637.00
2022-07-29T04:52:21.791Z,3707.00
2022-07-29T04:53:21.781Z,3778.00
2022-07-29T04:54:21.765Z,3838.00
2022-07-29T04:55:21.872Z,3888.00
2022-07-29T04:56:21.744Z,3936.00
2022-07-29T04:57:21.737Z,3977.00
2022-07-29T04:58:21.714Z,4033.00
2022-07-29T04:59:21.703Z,4087.00
2022-07-29T05:00:21.687Z,4136.00
2022-07-29T05:01:22.771Z,4195.00
2022-07-29T05:02:21.669Z,4272.00
2022-07-29T05:03:21.646Z,4343.00
2022-07-29T05:04:21.635Z,4429.00
2022-07-29T05:05:21.629Z,4511.00
2022-07-29T05:06:21.612Z,4615.00
2022-07-29T05:07:21.636Z,4712.00
2022-07-29T05:08:21.587Z,4834.00
2022-07-29T05:09:21.577Z,4934.00
2022-07-29T05:10:21.567Z,5054.00
2022-07-29T05:11:24.956Z,5182.00
2022-07-29T05:12:22.558Z,5278.00
2022-07-29T05:13:21.527Z,5402.00
2022-07-29T05:14:21.537Z,5511.00
2022-07-29T05:15:21.501Z,5609.00
2022-07-29T05:16:21.538Z,5677.00
2022-07-29T05:17:21.469Z,5732.00
2022-07-29T05:18:21.480Z,5755.00
2022-07-29T05:19:21.442Z,5773.00
2022-07-29T05:20:21.432Z,5772.00
2022-07-29T05:21:21.421Z,5751.00
2022-07-29T05:22:21.412Z,5764.00
2022-07-29T05:23:21.391Z,5749.00
2022-07-29T05:24:21.402Z,5758.00
2022-07-29T05:25:21.372Z,5778.00
2022-07-29T05:26:21.357Z,5844.00
2022-07-29T05:27:21.353Z,5930.00
2022-07-29T05:28:21.333Z,6011.00
2022-07-29T05:29:44.321Z,6151.00
2022-07-29T05:30:22.436Z,6244.00
2022-07-29T05:31:21.343Z,6338.00
2022-07-29T05:32:21.274Z,6411.00
2022-07-29T05:33:35.771Z,6462.00
2022-07-29T05:34:22.256Z,6529.00
2022-07-29T05:35:21.237Z,6598.00
2022-07-29T05:36:21.266Z,6647.00
2022-07-29T05:37:21.216Z,6721.00
2022-07-29T05:38:21.234Z,6806.00
2022-07-29T05:39:21.196Z,6876.00
2022-07-29T05:40:21.168Z,6935.00
2022-07-29T05:41:21.164Z,6991.00
2022-07-29T05:42:21.159Z,6997.00
2022-07-29T05:43:21.139Z,6987.00
2022-07-29T05:44:21.118Z,6987.00
2022-07-29T05:45:21.109Z,6939.00
2022-07-29T05:46:21.162Z,6888.00
2022-07-29T05:47:21.079Z,6811.00
2022-07-29T05:48:21.200Z,6740.00
2022-07-29T05:49:26.772Z,6682.00
2022-07-29T05:50:22.045Z,6623.00
2022-07-29T05:51:21.030Z,6612.00
2022-07-29T05:52:21.012Z,6623.00
2022-07-29T05:53:21.208Z,6716.00
2022-07-29T05:54:21.023Z,6836.00
2022-07-29T05:55:20.973Z,6989.00
2022-07-29T05:56:20.983Z,7168.00
2022-07-29T05:57:20.953Z,7359.00
2022-07-29T05:58:20.938Z,7533.00
2022-07-29T05:59:20.927Z,7681.00
2022-07-29T06:00:20.997Z,7797.00
2022-07-29T06:01:20.959Z,7850.00
2022-07-29T06:02:20.889Z,7887.00
2022-07-29T06:03:20.869Z,7911.00
2022-07-29T06:04:21.240Z,7949.00
2022-07-29T06:05:20.857Z,8010.00
2022-07-29T06:06:20.897Z,8096.00
2022-07-29T06:07:20.833Z,8205.00
2022-07-29T06:08:20.808Z,8314.00
2022-07-29T06:09:20.788Z,8428.00
2022-07-29T06:10:20.778Z,8480.00
2022-07-29T06:11:20.770Z,8522.00
2022-07-29T06:12:20.870Z,8503.00
2022-07-29T06:13:20.740Z,8468.00
2022-07-29T06:14:20.745Z,8438.00
2022-07-29T06:15:20.720Z,8368.00
2022-07-29T06:16:29.696Z,8273.00
2022-07-29T06:17:21.730Z,8157.00
2022-07-29T06:18:20.692Z,8014.00
2022-07-29T06:19:20.662Z,7868.00
2022-07-29T06:20:20.706Z,7674.00
2022-07-29T06:21:21.640Z,7501.00
2022-07-29T06:22:20.627Z,7289.00
2022-07-29T06:23:20.646Z,7059.00
2022-07-29T06:24:20.925Z,6849.00
2022-07-29T06:25:20.585Z,6646.00
2022-07-29T06:26:30.898Z,6433.00
2022-07-29T06:27:21.565Z,6273.00
2022-07-29T06:28:20.547Z,6119.00
2022-07-29T06:29:20.568Z,6003.00
2022-07-29T06:30:20.515Z,5891.00
2022-07-29T06:31:20.581Z,5800.00
2022-07-29T06:32:20.491Z,5715.00
2022-07-29T06:33:20.489Z,5643.00
2022-07-29T06:34:20.557Z,5572.00
2022-07-29T06:35:40.710Z,5525.00
2022-07-29T06:36:21.734Z,5486.00
2022-07-29T06:37:20.429Z,5437.00
2022-07-29T06:38:30.930Z,5356.00
2022-07-29T06:39:21.436Z,5300.00
2022-07-29T06:40:20.389Z,5233.00
2022-07-29T06:41:20.412Z,5176.00
2022-07-29T06:42:20.360Z,5113.00
2022-07-29T06:43:20.362Z,5082.00
2022-07-29T06:44:20.549Z,5057.00
2022-07-29T06:45:20.328Z,5067.00
2022-07-29T06:46:20.410Z,5073.00
2022-07-29T06:47:20.423Z,5098.00
2022-07-29T06:48:20.293Z,5141.00
2022-07-29T06:49:20.377Z,5222.00
2022-07-29T06:50:20.260Z,5322.00
2022-07-29T06:51:23.089Z,5427.00
2022-07-29T06:52:20.245Z,5557.00
2022-07-29T06:53:20.253Z,5696.00
2022-07-29T06:54:20.206Z,5840.00
2022-07-29T06:55:25.029Z,6007.00
2022-07-29T06:56:21.186Z,6179.00
2022-07-29T06:57:20.177Z,6358.00
2022-07-29T06:58:20.186Z,6538.00
2022-07-29T06:59:24.469Z,6721.00
2022-07-29T07:00:21.128Z,6892.00
2022-07-29T07:01:20.180Z,7029.00
2022-07-29T07:02:20.139Z,7119.00
2022-07-29T07:03:20.088Z,7173.00
2022-07-29T07:04:20.687Z,7259.00
2022-07-29T07:05:20.072Z,7348.00
2022-07-29T07:06:20.050Z,7478.00
2022-07-29T07:07:20.040Z,7612.00
2022-07-29T07:08:20.122Z,7728.00
2022-07-29T07:09:20.023Z,7811.00
2022-07-29T07:10:20.138Z,7895.00
2022-07-29T07:11:19.995Z,7942.00
2022-07-29T07:12:19.972Z,7973.00
2022-07-29T07:13:19.982Z,7983.00
2022-07-29T07:14:20.779Z,7994.00
2022-07-29T07:15:19.942Z,8006.00
2022-07-29T07:16:20.010Z,7979.00
2022-07-29T07:17:19.914Z,7977.00
2022-07-29T07:18:19.913Z,7979.00
2022-07-29T07:19:19.885Z,7958.00
2022-07-29T07:20:19.877Z,7903.00
2022-07-29T07:21:19.873Z,7795.00
2022-07-29T07:22:19.876Z,7663.00
2022-07-29T07:23:19.843Z,7513.00
2022-07-29T07:24:19.817Z,7365.00
2022-07-29T07:25:19.814Z,7233.00
2022-07-29T07:26:19.786Z,7106.00
2022-07-29T07:27:19.792Z,7017.00
2022-07-29T07:28:24.498Z,6929.00
2022-07-29T07:29:20.758Z,6830.00
2022-07-29T07:30:19.738Z,6783.00
2022-07-29T07:31:19.811Z,6725.00
2022-07-29T07:32:19.738Z,6706.00
2022-07-29T07:33:19.719Z,6702.00
2022-07-29T07:34:19.724Z,6774.00
2022-07-29T07:35:20.682Z,6859.00
2022-07-29T07:36:19.693Z,6957.00
2022-07-29T07:37:19.669Z,7079.00
2022-07-29T07:38:19.654Z,7185.00
2022-07-29T07:39:19.636Z,7301.00
2022-07-29T07:40:19.724Z,7401.00
2022-07-29T07:41:19.617Z,7495.00
2022-07-29T07:42:19.592Z,7584.00
2022-07-29T07:43:19.583Z,7681.00
2022-07-29T07:44:19.881Z,7813.00
2022-07-29T07:45:19.558Z,7950.00
2022-07-29T07:46:19.653Z,8119.00
2022-07-29T07:47:19.526Z,8297.00
2022-07-29T07:48:19.514Z,8448.00
2022-07-29T07:49:19.545Z,8599.00
2022-07-29T07:50:19.521Z,8757.00
2022-07-29T07:51:19.477Z,8904.00
2022-07-29T07:52:19.497Z,9033.00
2022-07-29T07:53:19.448Z,9126.00
2022-07-29T07:54:20.638Z,9226.00
2022-07-29T07:55:19.419Z,9315.00
2022-07-29T07:56:19.411Z,9343.00
2022-07-29T07:57:19.399Z,9375.00
2022-07-29T07:58:19.428Z,9357.00
2022-07-29T07:59:19.410Z,9284.00
2022-07-29T08:00:19.360Z,9118.00
2022-07-29T08:01:19.435Z,8967.00
2022-07-29T08:02:19.448Z,8799.00
2022-07-29T08:03:19.326Z,8690.00
2022-07-29T08:04:23.555Z,8568.00
2022-07-29T08:05:20.293Z,8515.00
2022-07-29T08:06:19.283Z,8439.00
2022-07-29T08:07:19.272Z,8389.00
2022-07-29T08:08:19.287Z,8441.00
2022-07-29T08:09:28.833Z,8545.00
2022-07-29T08:10:20.285Z,8705.00
2022-07-29T08:11:19.214Z,8837.00
2022-07-29T08:12:19.204Z,8930.00
2022-07-29T08:13:19.185Z,8933.00
2022-07-29T08:14:19.403Z,8854.00
2022-07-29T08:15:19.165Z,8678.00
2022-07-29T08:16:19.202Z,8476.00
2022-07-29T08:17:19.138Z,8276.00
2022-07-29T08:18:19.138Z,8084.00
2022-07-29T08:19:19.109Z,7891.00
2022-07-29T08:20:19.107Z,7703.00
2022-07-29T08:21:19.088Z,7511.00
2022-07-29T08:22:19.132Z,7328.00
2022-07-29T08:23:19.069Z,7173.00
2022-07-29T08:24:19.049Z,7029.00
2022-07-29T08:25:19.049Z,6904.00
2022-07-29T08:26:19.030Z,6776.00
2022-07-29T08:27:41.914Z,6674.00
2022-07-29T08:28:20.110Z,6572.00
2022-07-29T08:29:20.173Z,6491.00
2022-07-29T08:30:18.998Z,6416.00
2022-07-29T08:31:19.028Z,6314.00
2022-07-29T08:32:31.118Z,6175.00
2022-07-29T08:33:19.933Z,6039.00
2022-07-29T08:34:19.043Z,5917.00
2022-07-29T08:35:19.912Z,5789.00
2022-07-29T08:36:18.896Z,5690.00
2022-07-29T08:37:18.883Z,5618.00
2022-07-29T08:38:18.885Z,5560.00
2022-07-29T08:39:18.856Z,5510.00
2022-07-29T08:40:18.866Z,5476.00
2022-07-29T08:41:18.835Z,5449.00
2022-07-29T08:42:18.835Z,5362.00
2022-07-29T08:43:18.804Z,5274.00
2022-07-29T08:44:18.787Z,5174.00
2022-07-29T08:45:19.811Z,5075.00
2022-07-29T08:46:18.827Z,4981.00
2022-07-29T08:47:18.753Z,4898.00
2022-07-29T08:48:18.802Z,4830.00
2022-07-29T08:49:18.806Z,4794.00
2022-07-29T08:50:18.743Z,4809.00
2022-07-29T08:51:18.732Z,4872.00
2022-07-29T08:52:18.694Z,4966.00
2022-07-29T08:53:18.684Z,5080.00
2022-07-29T08:54:18.666Z,5206.00
2022-07-29T08:55:21.356Z,5351.00
2022-07-29T08:56:18.650Z,5500.00
2022-07-29T08:57:18.742Z,5629.00
2022-07-29T08:58:20.437Z,5784.00
2022-07-29T08:59:18.605Z,5938.00
2022-07-29T09:00:18.630Z,6002.00
2022-07-29T09:01:19.560Z,6009.00
2022-07-29T09:02:18.564Z,5928.00
2022-07-29T09:03:18.624Z,5826.00
2022-07-29T09:04:18.537Z,5724.00
2022-07-29T09:05:18.525Z,5676.00
2022-07-29T09:06:18.509Z,5705.00
2022-07-29T09:07:18.496Z,5811.00
2022-07-29T09:08:18.488Z,5912.00
2022-07-29T09:09:18.497Z,6004.00
2022-07-29T09:10:18.515Z,6086.00
2022-07-29T09:11:18.449Z,6133.00
2022-07-29T09:12:28.640Z,6150.00
2022-07-29T09:13:19.410Z,6269.00
2022-07-29T09:14:18.409Z,6439.00
2022-07-29T09:15:18.418Z,6627.00
2022-07-29T09:16:37.206Z,6833.00
2022-07-29T09:17:19.387Z,7059.00
2022-07-29T09:18:19.542Z,7287.00
2022-07-29T09:19:19.343Z,7496.00
2022-07-29T09:20:18.388Z,7638.00
2022-07-29T09:21:18.333Z,7725.00
2022-07-29T09:22:18.337Z,7786.00
2022-07-29T09:23:22.909Z,7795.00
2022-07-29T09:24:19.294Z,7810.00
2022-07-29T09:25:18.254Z,7792.00
2022-07-29T09:26:18.292Z,7769.00
2022-07-29T09:27:18.236Z,7764.00
2022-07-29T09:28:18.225Z,7756.00
2022-07-29T09:29:18.206Z,7718.00
2022-07-29T09:30:30.299Z,7670.00
2022-07-29T09:31:19.240Z,7590.00
2022-07-29T09:32:18.176Z,7522.00
2022-07-29T09:33:18.157Z,7392.00
2022-07-29T09:34:18.151Z,7261.00
2022-07-29T09:35:18.142Z,7099.00
2022-07-29T09:36:18.120Z,6931.00
2022-07-29T09:37:18.224Z,6720.00
2022-07-29T09:38:18.102Z,6525.00
2022-07-29T09:39:18.083Z,6302.00
2022-07-29T09:40:18.084Z,6050.00
2022-07-29T09:41:18.061Z,5807.00
2022-07-29T09:42:18.041Z,5565.00
2022-07-29T09:43:18.150Z,5363.00
2022-07-29T09:44:18.033Z,5205.00
2022-07-29T09:45:18.002Z,5121.00
2022-07-29T09:46:18.035Z,5043.00
2022-07-29T09:47:18.051Z,4998.00
2022-07-29T09:48:17.973Z,4982.00
2022-07-29T09:49:18.048Z,4964.00
2022-07-29T09:50:17.944Z,4961.00
2022-07-29T09:51:20.582Z,4954.00
2022-07-29T09:52:17.918Z,4901.00
2022-07-29T09:53:17.936Z,4836.00
2022-07-29T09:54:17.906Z,4754.00
2022-07-29T09:55:19.723Z,4676.00
2022-07-29T09:56:17.869Z,4590.00
2022-07-29T09:57:17.857Z,4503.00
2022-07-29T09:58:17.846Z,4426.00
2022-07-29T09:59:17.819Z,4347.00
2022-07-29T10:00:17.824Z,4280.00
2022-07-29T10:01:17.969Z,4223.00
2022-07-29T10:02:22.157Z,4181.00
2022-07-29T10:03:18.904Z,4120.00
2022-07-29T10:04:17.760Z,4085.00
2022-07-29T10:05:17.740Z,4043.00
2022-07-29T10:06:17.731Z,4025.00
2022-07-29T10:07:17.751Z,4009.00
2022-07-29T10:08:17.723Z,4014.00
2022-07-29T10:09:17.702Z,4030.00
2022-07-29T10:10:17.692Z,4050.00
2022-07-29T10:11:17.700Z,4056.00
2022-07-29T10:12:17.655Z,4068.00
2022-07-29T10:13:17.785Z,4086.00
2022-07-29T10:14:17.637Z,4124.00
2022-07-29T10:15:17.616Z,4188.00
2022-07-29T10:16:17.659Z,4226.00
2022-07-29T10:17:17.585Z,4263.00
2022-07-29T10:18:17.590Z,4278.00
2022-07-29T10:19:17.605Z,4318.00
2022-07-29T10:20:18.520Z,4353.00
2022-07-29T10:21:35.154Z,4389.00
2022-07-29T10:22:43.315Z,4413.00
2022-07-29T10:23:18.518Z,4423.00
2022-07-29T10:24:17.508Z,4454.00
2022-07-29T10:25:17.524Z,4498.00
2022-07-29T10:26:17.479Z,4556.00
2022-07-29T10:27:17.463Z,4625.00
2022-07-29T10:28:17.463Z,4740.00
2022-07-29T10:29:17.430Z,4866.00
2022-07-29T10:30:17.424Z,4977.00
2022-07-29T10:31:17.507Z,5119.00
2022-07-29T10:32:17.401Z,5215.00
2022-07-29T10:33:17.392Z,5312.00
2022-07-29T10:34:17.383Z,5366.00
2022-07-29T10:35:17.386Z,5395.00
2022-07-29T10:36:17.353Z,5412.00
2022-07-29T10:37:17.453Z,5406.00
2022-07-29T10:38:17.534Z,5417.00
2022-07-29T10:39:17.305Z,5454.00
2022-07-29T10:40:18.305Z,5544.00
2022-07-29T10:41:19.546Z,5658.00
2022-07-29T10:42:19.972Z,5789.00
2022-07-29T10:43:17.375Z,5913.00
2022-07-29T10:44:19.073Z,6019.00
2022-07-29T10:45:17.235Z,6120.00
2022-07-29T10:46:17.297Z,6198.00
2022-07-29T10:47:17.216Z,6257.00
2022-07-29T10:48:17.219Z,6297.00
2022-07-29T10:49:17.280Z,6289.00
2022-07-29T10:50:17.466Z,6277.00
2022-07-29T10:51:17.149Z,6311.00
2022-07-29T10:52:17.149Z,6369.00
2022-07-29T10:53:17.137Z,6430.00
2022-07-29T10:54:17.111Z,6464.00
2022-07-29T10:55:17.130Z,6421.00
2022-07-29T10:56:17.460Z,6312.00
2022-07-29T10:57:17.146Z,6194.00
2022-07-29T10:58:17.885Z,6147.00
2022-07-29T10:59:17.042Z,6087.00
2022-07-29T11:00:17.340Z,6035.00
2022-07-29T11:01:17.052Z,5996.00
2022-07-29T11:02:41.016Z,5974.00
2022-07-29T11:03:18.041Z,5970.00
2022-07-29T11:04:16.984Z,5979.00
2022-07-29T11:05:16.965Z,6017.00
2022-07-29T11:06:16.970Z,6079.00
2022-07-29T11:07:17.005Z,6181.00
2022-07-29T11:08:19.970Z,6293.00
2022-07-29T11:09:16.917Z,6378.00
2022-07-29T11:10:16.906Z,6425.00
2022-07-29T11:11:17.458Z,6439.00
2022-07-29T11:12:16.905Z,6442.00
2022-07-29T11:13:16.928Z,6458.00
2022-07-29T11:14:16.868Z,6503.00
2022-07-29T11:15:16.846Z,6563.00
2022-07-29T11:16:16.830Z,6569.00
2022-07-29T11:17:16.840Z,6516.00
2022-07-29T11:19:26.313Z,6471.00
2022-07-29T11:20:17.798Z,6454.00
2022-07-29T11:21:16.760Z,6344.00
2022-07-29T11:22:17.749Z,6190.00
2022-07-29T11:23:16.785Z,5963.00
2022-07-29T11:24:18.591Z,5729.00
2022-07-29T11:25:17.763Z,5548.00
2022-07-29T11:26:18.850Z,5390.00
2022-07-29T11:27:18.035Z,5262.00
2022-07-29T11:28:20.720Z,5184.00
2022-07-29T11:29:17.675Z,5183.00
2022-07-29T11:30:16.654Z,5221.00
2022-07-29T11:31:16.675Z,5304.00
2022-07-29T11:32:18.363Z,5389.00
2022-07-29T11:33:17.631Z,5515.00
2022-07-29T11:34:17.616Z,5632.00
2022-07-29T11:35:17.990Z,5744.00
2022-07-29T11:36:17.088Z,5836.00
2022-07-29T11:37:17.786Z,5925.00
2022-07-29T11:38:16.548Z,5992.00
2022-07-29T11:39:16.546Z,6073.00
2022-07-29T11:40:16.532Z,6169.00
2022-07-29T11:41:16.508Z,6272.00
2022-07-29T11:42:16.532Z,6419.00
2022-07-29T11:43:16.528Z,6537.00
2022-07-29T11:44:17.981Z,6641.00
2022-07-29T11:45:42.100Z,6670.00
2022-07-29T11:46:17.450Z,6598.00
2022-07-29T11:47:17.489Z,6501.00
2022-07-29T11:48:31.391Z,6335.00
2022-07-29T11:49:17.497Z,6128.00
2022-07-29T11:50:16.392Z,5927.00
2022-07-29T11:51:16.372Z,5752.00
2022-07-29T11:52:16.374Z,5559.00
2022-07-29T11:53:16.440Z,5372.00
2022-07-29T11:54:16.344Z,5257.00
2022-07-29T11:55:16.366Z,5198.00
2022-07-29T11:56:17.033Z,5210.00
2022-07-29T11:57:16.307Z,5274.00
2022-07-29T11:58:16.297Z,5355.00
2022-07-29T11:59:16.275Z,5500.00
2022-07-29T12:00:18.748Z,5643.00
2022-07-29T12:01:16.297Z,5805.00
2022-07-29T12:02:36.541Z,5937.00
2022-07-29T12:03:17.288Z,6056.00
2022-07-29T12:04:16.368Z,6160.00
2022-07-29T12:05:23.966Z,6224.00
2022-07-29T12:06:18.398Z,6283.00
2022-07-29T12:07:17.219Z,6357.00
2022-07-29T12:08:16.179Z,6494.00
2022-07-29T12:09:16.169Z,6698.00
2022-07-29T12:10:20.189Z,6940.00
2022-07-29T12:11:17.123Z,7174.00
2022-07-29T12:12:16.131Z,7373.00
2022-07-29T12:13:16.099Z,7576.00
2022-07-29T12:14:16.092Z,7747.00
2022-07-29T12:15:16.096Z,7926.00
2022-07-29T12:16:16.121Z,8100.00
2022-07-29T12:17:17.082Z,8259.00
2022-07-29T12:18:16.039Z,8355.00
2022-07-29T12:19:16.023Z,8440.00
2022-07-29T12:20:16.016Z,8540.00
2022-07-29T12:21:16.005Z,8634.00
2022-07-29T12:22:15.985Z,8754.00
2022-07-29T12:23:16.183Z,8867.00
2022-07-29T12:24:15.957Z,8935.00
2022-07-29T12:25:32.479Z,9006.00
2022-07-29T12:26:21.858Z,8988.00
2022-07-29T12:27:16.925Z,8952.00